sensor_id;sensor_type;location;lat;lon;timestamp;P1;durP1;ratioP1;P2;durP2;ratioP2
37485;SDS011;23341;50.296;18.960;2023-02-24T00:02:35;18.67;;;12.82;;
37485;SDS011;23341;50.296;18.960;2023-02-24T00:07:40;24.95;;;14.93;;
37485;SDS011;23341;50.296;18.960;2023-02-24T00:12:45;24.30;;;15.43;;
37485;SDS011;23341;50.296;18.960;2023-02-24T00:17:52;22.08;;;13.18;;
37485;SDS011;23341;50.296;18.960;2023-02-24T00:22:56;34.45;;;16.92;;
37485;SDS011;23341;50.296;18.960;2023-02-24T00:28:01;23.50;;;14.52;;
37485;SDS011;23341;50.296;18.960;2023-02-24T00:33:07;25.25;;;14.23;;
37485;SDS011;23341;50.296;18.960;2023-02-24T00:38:13;27.98;;;15.15;;
37485;SDS011;23341;50.296;18.960;2023-02-24T00:43:18;22.15;;;15.38;;
37485;SDS011;23341;50.296;18.960;2023-02-24T00:48:24;29.70;;;15.98;;
37485;SDS011;23341;50.296;18.960;2023-02-24T00:53:29;24.13;;;15.70;;
37485;SDS011;23341;50.296;18.960;2023-02-24T00:58:34;27.15;;;15.75;;
37485;SDS011;23341;50.296;18.960;2023-02-24T01:03:42;31.80;;;17.13;;
37485;SDS011;23341;50.296;18.960;2023-02-24T01:08:47;28.40;;;17.35;;
37485;SDS011;23341;50.296;18.960;2023-02-24T01:13:52;34.05;;;19.20;;
37485;SDS011;23341;50.296;18.960;2023-02-24T01:18:59;30.85;;;18.38;;
37485;SDS011;23341;50.296;18.960;2023-02-24T01:24:04;32.22;;;17.25;;
37485;SDS011;23341;50.296;18.960;2023-02-24T01:29:09;30.02;;;17.50;;
37485;SDS011;23341;50.296;18.960;2023-02-24T01:34:15;31.60;;;17.15;;
37485;SDS011;23341;50.296;18.960;2023-02-24T01:39:20;41.42;;;20.35;;
37485;SDS011;23341;50.296;18.960;2023-02-24T01:50:16;30.95;;;16.80;;
37485;SDS011;23341;50.296;18.960;2023-02-24T01:55:26;33.75;;;17.33;;
37485;SDS011;23341;50.296;18.960;2023-02-24T02:00:34;33.08;;;18.20;;
37485;SDS011;23341;50.296;18.960;2023-02-24T02:05:48;26.95;;;16.77;;
37485;SDS011;23341;50.296;18.960;2023-02-24T02:10:53;29.88;;;18.10;;
37485;SDS011;23341;50.296;18.960;2023-02-24T02:16:04;27.92;;;17.48;;
37485;SDS011;23341;50.296;18.960;2023-02-24T02:21:35;27.00;;;16.98;;
37485;SDS011;23341;50.296;18.960;2023-02-24T02:27:13;33.28;;;17.67;;
37485;SDS011;23341;50.296;18.960;2023-02-24T02:38:07;26.88;;;16.35;;
37485;SDS011;23341;50.296;18.960;2023-02-24T02:43:17;28.92;;;16.50;;
37485;SDS011;23341;50.296;18.960;2023-02-24T02:48:33;26.13;;;16.88;;
37485;SDS011;23341;50.296;18.960;2023-02-24T02:53:45;23.33;;;15.73;;
37485;SDS011;23341;50.296;18.960;2023-02-24T02:58:55;26.42;;;17.40;;
37485;SDS011;23341;50.296;18.960;2023-02-24T03:04:02;22.55;;;14.73;;
37485;SDS011;23341;50.296;18.960;2023-02-24T03:09:13;29.13;;;16.48;;
37485;SDS011;23341;50.296;18.960;2023-02-24T03:14:25;29.13;;;17.40;;
37485;SDS011;23341;50.296;18.960;2023-02-24T03:19:32;34.72;;;17.95;;
37485;SDS011;23341;50.296;18.960;2023-02-24T03:24:43;32.80;;;18.90;;
37485;SDS011;23341;50.296;18.960;2023-02-24T03:30:00;33.03;;;18.85;;
37485;SDS011;23341;50.296;18.960;2023-02-24T03:35:12;53.25;;;24.17;;
37485;SDS011;23341;50.296;18.960;2023-02-24T03:40:22;44.80;;;22.02;;
37485;SDS011;23341;50.296;18.960;2023-02-24T03:45:33;38.10;;;21.95;;
37485;SDS011;23341;50.296;18.960;2023-02-24T03:50:41;45.25;;;21.73;;
37485;SDS011;23341;50.296;18.960;2023-02-24T03:56:11;42.88;;;23.50;;
37485;SDS011;23341;50.296;18.960;2023-02-24T04:01:31;48.78;;;27.33;;
37485;SDS011;23341;50.296;18.960;2023-02-24T04:06:46;46.78;;;26.70;;
37485;SDS011;23341;50.296;18.960;2023-02-24T04:12:02;42.42;;;23.80;;
37485;SDS011;23341;50.296;18.960;2023-02-24T04:17:15;60.40;;;29.80;;
37485;SDS011;23341;50.296;18.960;2023-02-24T04:22:24;60.58;;;28.35;;
37485;SDS011;23341;50.296;18.960;2023-02-24T04:27:32;55.20;;;29.30;;
37485;SDS011;23341;50.296;18.960;2023-02-24T04:32:47;58.50;;;29.20;;
37485;SDS011;23341;50.296;18.960;2023-02-24T04:37:52;69.82;;;32.38;;
37485;SDS011;23341;50.296;18.960;2023-02-24T04:42:58;53.08;;;26.77;;
37485;SDS011;23341;50.296;18.960;2023-02-24T04:48:03;58.50;;;31.08;;
37485;SDS011;23341;50.296;18.960;2023-02-24T04:53:14;59.35;;;33.13;;
37485;SDS011;23341;50.296;18.960;2023-02-24T04:58:21;74.93;;;37.03;;
37485;SDS011;23341;50.296;18.960;2023-02-24T05:03:29;70.32;;;35.90;;
37485;SDS011;23341;50.296;18.960;2023-02-24T05:08:33;79.18;;;38.92;;
37485;SDS011;23341;50.296;18.960;2023-02-24T05:13:41;75.32;;;37.83;;
37485;SDS011;23341;50.296;18.960;2023-02-24T05:18:47;80.43;;;38.35;;
37485;SDS011;23341;50.296;18.960;2023-02-24T05:23:52;63.60;;;31.25;;
37485;SDS011;23341;50.296;18.960;2023-02-24T05:29:01;81.03;;;39.58;;
37485;SDS011;23341;50.296;18.960;2023-02-24T05:34:07;72.38;;;37.60;;
37485;SDS011;23341;50.296;18.960;2023-02-24T05:39:11;74.22;;;39.30;;
37485;SDS011;23341;50.296;18.960;2023-02-24T05:44:22;68.05;;;35.58;;
37485;SDS011;23341;50.296;18.960;2023-02-24T05:49:29;76.93;;;40.28;;
37485;SDS011;23341;50.296;18.960;2023-02-24T05:54:36;77.40;;;40.13;;
37485;SDS011;23341;50.296;18.960;2023-02-24T05:59:43;75.72;;;39.22;;
37485;SDS011;23341;50.296;18.960;2023-02-24T06:04:48;80.35;;;38.92;;
37485;SDS011;23341;50.296;18.960;2023-02-24T06:09:56;71.28;;;35.15;;
37485;SDS011;23341;50.296;18.960;2023-02-24T06:15:03;67.55;;;37.55;;
37485;SDS011;23341;50.296;18.960;2023-02-24T06:20:10;84.15;;;47.30;;
37485;SDS011;23341;50.296;18.960;2023-02-24T06:25:17;77.38;;;43.35;;
37485;SDS011;23341;50.296;18.960;2023-02-24T06:30:23;87.22;;;48.67;;
37485;SDS011;23341;50.296;18.960;2023-02-24T06:35:28;86.45;;;53.72;;
37485;SDS011;23341;50.296;18.960;2023-02-24T06:40:34;75.22;;;39.17;;
37485;SDS011;23341;50.296;18.960;2023-02-24T06:45:40;59.67;;;32.60;;
37485;SDS011;23341;50.296;18.960;2023-02-24T06:50:45;130.88;;;86.13;;
37485;SDS011;23341;50.296;18.960;2023-02-24T06:55:50;69.63;;;39.80;;
37485;SDS011;23341;50.296;18.960;2023-02-24T07:00:56;70.32;;;41.28;;
37485;SDS011;23341;50.296;18.960;2023-02-24T07:06:00;71.35;;;40.08;;
37485;SDS011;23341;50.296;18.960;2023-02-24T07:11:21;78.90;;;40.92;;
37485;SDS011;23341;50.296;18.960;2023-02-24T07:16:28;74.95;;;40.40;;
37485;SDS011;23341;50.296;18.960;2023-02-24T07:21:33;73.60;;;36.67;;
37485;SDS011;23341;50.296;18.960;2023-02-24T07:26:41;77.07;;;39.17;;
37485;SDS011;23341;50.296;18.960;2023-02-24T07:31:56;93.40;;;49.28;;
37485;SDS011;23341;50.296;18.960;2023-02-24T07:37:03;167.63;;;94.90;;
37485;SDS011;23341;50.296;18.960;2023-02-24T07:42:10;87.80;;;47.47;;
37485;SDS011;23341;50.296;18.960;2023-02-24T07:52:27;95.40;;;50.55;;
37485;SDS011;23341;50.296;18.960;2023-02-24T07:57:34;88.55;;;44.42;;
37485;SDS011;23341;50.296;18.960;2023-02-24T08:02:41;92.15;;;47.30;;
37485;SDS011;23341;50.296;18.960;2023-02-24T08:07:46;88.82;;;46.47;;
37485;SDS011;23341;50.296;18.960;2023-02-24T08:12:52;101.03;;;50.65;;
37485;SDS011;23341;50.296;18.960;2023-02-24T08:17:59;89.38;;;48.85;;
37485;SDS011;23341;50.296;18.960;2023-02-24T08:23:04;87.25;;;43.97;;
37485;SDS011;23341;50.296;18.960;2023-02-24T08:28:10;89.05;;;46.55;;
37485;SDS011;23341;50.296;18.960;2023-02-24T08:33:18;85.57;;;42.00;;
37485;SDS011;23341;50.296;18.960;2023-02-24T08:43:30;89.28;;;45.22;;
37485;SDS011;23341;50.296;18.960;2023-02-24T08:48:42;112.60;;;57.33;;
37485;SDS011;23341;50.296;18.960;2023-02-24T08:53:49;99.45;;;53.58;;
37485;SDS011;23341;50.296;18.960;2023-02-24T08:58:56;103.75;;;59.40;;
37485;SDS011;23341;50.296;18.960;2023-02-24T09:04:09;96.22;;;49.28;;
37485;SDS011;23341;50.296;18.960;2023-02-24T09:09:20;91.65;;;44.72;;
37485;SDS011;23341;50.296;18.960;2023-02-24T09:14:25;83.63;;;42.60;;
37485;SDS011;23341;50.296;18.960;2023-02-24T09:19:34;92.45;;;45.70;;
37485;SDS011;23341;50.296;18.960;2023-02-24T09:25:04;88.57;;;44.92;;
37485;SDS011;23341;50.296;18.960;2023-02-24T09:30:27;81.45;;;39.85;;
37485;SDS011;23341;50.296;18.960;2023-02-24T09:35:55;87.88;;;47.95;;
37485;SDS011;23341;50.296;18.960;2023-02-24T09:41:16;102.97;;;48.22;;
37485;SDS011;23341;50.296;18.960;2023-02-24T09:46:38;99.45;;;50.75;;
37485;SDS011;23341;50.296;18.960;2023-02-24T09:51:57;105.88;;;55.35;;
37485;SDS011;23341;50.296;18.960;2023-02-24T09:57:12;148.68;;;85.68;;
37485;SDS011;23341;50.296;18.960;2023-02-24T10:02:32;132.60;;;71.53;;
37485;SDS011;23341;50.296;18.960;2023-02-24T10:07:48;124.85;;;68.65;;
37485;SDS011;23341;50.296;18.960;2023-02-24T10:12:56;133.15;;;69.43;;
37485;SDS011;23341;50.296;18.960;2023-02-24T10:18:25;113.80;;;61.67;;
37485;SDS011;23341;50.296;18.960;2023-02-24T10:23:38;89.13;;;51.13;;
37485;SDS011;23341;50.296;18.960;2023-02-24T10:28:59;89.88;;;48.10;;
37485;SDS011;23341;50.296;18.960;2023-02-24T10:34:12;91.65;;;49.30;;
37485;SDS011;23341;50.296;18.960;2023-02-24T10:39:29;94.53;;;57.35;;
37485;SDS011;23341;50.296;18.960;2023-02-24T10:44:34;81.18;;;46.42;;
37485;SDS011;23341;50.296;18.960;2023-02-24T10:49:41;93.68;;;51.67;;
37485;SDS011;23341;50.296;18.960;2023-02-24T10:55:00;83.53;;;45.85;;
37485;SDS011;23341;50.296;18.960;2023-02-24T11:00:13;84.38;;;46.72;;
37485;SDS011;23341;50.296;18.960;2023-02-24T11:05:34;67.78;;;40.55;;
37485;SDS011;23341;50.296;18.960;2023-02-24T11:11:11;75.57;;;44.97;;
37485;SDS011;23341;50.296;18.960;2023-02-24T11:16:27;75.70;;;44.03;;
37485;SDS011;23341;50.296;18.960;2023-02-24T11:21:53;81.57;;;48.65;;
37485;SDS011;23341;50.296;18.960;2023-02-24T11:26:59;63.47;;;37.72;;
37485;SDS011;23341;50.296;18.960;2023-02-24T11:32:13;70.32;;;42.55;;
37485;SDS011;23341;50.296;18.960;2023-02-24T11:37:35;59.60;;;37.15;;
37485;SDS011;23341;50.296;18.960;2023-02-24T11:42:47;62.92;;;39.05;;
37485;SDS011;23341;50.296;18.960;2023-02-24T11:47:57;67.78;;;37.10;;
37485;SDS011;23341;50.296;18.960;2023-02-24T11:53:09;55.80;;;34.58;;
37485;SDS011;23341;50.296;18.960;2023-02-24T11:58:23;49.40;;;30.77;;
37485;SDS011;23341;50.296;18.960;2023-02-24T12:03:36;56.50;;;32.05;;
37485;SDS011;23341;50.296;18.960;2023-02-24T12:08:48;64.68;;;35.97;;
37485;SDS011;23341;50.296;18.960;2023-02-24T12:13:58;65.90;;;35.85;;
37485;SDS011;23341;50.296;18.960;2023-02-24T12:19:11;55.53;;;33.05;;
37485;SDS011;23341;50.296;18.960;2023-02-24T12:24:21;59.97;;;34.88;;
37485;SDS011;23341;50.296;18.960;2023-02-24T12:29:33;50.90;;;31.60;;
37485;SDS011;23341;50.296;18.960;2023-02-24T12:34:54;50.45;;;31.20;;
37485;SDS011;23341;50.296;18.960;2023-02-24T12:40:11;57.78;;;35.85;;
37485;SDS011;23341;50.296;18.960;2023-02-24T12:45:28;94.50;;;47.63;;
37485;SDS011;23341;50.296;18.960;2023-02-24T12:50:43;64.03;;;39.10;;
37485;SDS011;23341;50.296;18.960;2023-02-24T12:55:57;63.15;;;40.72;;
37485;SDS011;23341;50.296;18.960;2023-02-24T13:01:17;58.13;;;35.53;;
37485;SDS011;23341;50.296;18.960;2023-02-24T13:06:31;108.80;;;55.20;;
37485;SDS011;23341;50.296;18.960;2023-02-24T13:11:45;72.45;;;41.95;;
37485;SDS011;23341;50.296;18.960;2023-02-24T13:17:15;70.05;;;37.53;;
37485;SDS011;23341;50.296;18.960;2023-02-24T13:22:25;79.40;;;47.30;;
37485;SDS011;23341;50.296;18.960;2023-02-24T13:27:32;60.00;;;39.65;;
37485;SDS011;23341;50.296;18.960;2023-02-24T13:32:40;65.78;;;36.45;;
37485;SDS011;23341;50.296;18.960;2023-02-24T13:37:49;65.80;;;37.95;;
37485;SDS011;23341;50.296;18.960;2023-02-24T13:42:58;68.38;;;41.58;;
37485;SDS011;23341;50.296;18.960;2023-02-24T13:48:21;58.95;;;36.67;;
37485;SDS011;23341;50.296;18.960;2023-02-24T13:53:59;69.30;;;41.38;;
37485;SDS011;23341;50.296;18.960;2023-02-24T13:59:19;64.50;;;36.45;;
37485;SDS011;23341;50.296;18.960;2023-02-24T14:04:44;76.25;;;45.13;;
37485;SDS011;23341;50.296;18.960;2023-02-24T14:09:52;75.97;;;45.05;;
37485;SDS011;23341;50.296;18.960;2023-02-24T14:14:59;65.30;;;39.63;;
37485;SDS011;23341;50.296;18.960;2023-02-24T14:20:09;45.15;;;25.42;;
37485;SDS011;23341;50.296;18.960;2023-02-24T14:25:21;47.50;;;26.95;;
37485;SDS011;23341;50.296;18.960;2023-02-24T14:30:27;52.10;;;30.67;;
37485;SDS011;23341;50.296;18.960;2023-02-24T14:35:40;52.47;;;31.83;;
37485;SDS011;23341;50.296;18.960;2023-02-24T14:40:48;62.42;;;38.58;;
37485;SDS011;23341;50.296;18.960;2023-02-24T14:45:53;57.33;;;34.55;;
37485;SDS011;23341;50.296;18.960;2023-02-24T14:51:00;77.78;;;43.45;;
37485;SDS011;23341;50.296;18.960;2023-02-24T14:56:10;88.55;;;53.22;;
37485;SDS011;23341;50.296;18.960;2023-02-24T15:01:17;90.18;;;50.90;;
37485;SDS011;23341;50.296;18.960;2023-02-24T15:06:27;94.60;;;53.60;;
37485;SDS011;23341;50.296;18.960;2023-02-24T15:11:34;82.82;;;48.80;;
37485;SDS011;23341;50.296;18.960;2023-02-24T15:16:39;95.85;;;55.28;;
37485;SDS011;23341;50.296;18.960;2023-02-24T15:21:47;85.25;;;51.58;;
37485;SDS011;23341;50.296;18.960;2023-02-24T15:26:52;95.75;;;54.33;;
37485;SDS011;23341;50.296;18.960;2023-02-24T15:31:58;93.60;;;49.17;;
37485;SDS011;23341;50.296;18.960;2023-02-24T15:37:13;163.00;;;77.65;;
37485;SDS011;23341;50.296;18.960;2023-02-24T15:42:20;77.47;;;46.33;;
37485;SDS011;23341;50.296;18.960;2023-02-24T15:47:39;75.55;;;40.65;;
37485;SDS011;23341;50.296;18.960;2023-02-24T15:52:46;56.72;;;35.25;;
37485;SDS011;23341;50.296;18.960;2023-02-24T15:57:55;65.03;;;39.65;;
37485;SDS011;23341;50.296;18.960;2023-02-24T16:03:02;78.60;;;43.17;;
37485;SDS011;23341;50.296;18.960;2023-02-24T16:08:09;50.90;;;29.27;;
37485;SDS011;23341;50.296;18.960;2023-02-24T16:13:20;57.95;;;30.75;;
37485;SDS011;23341;50.296;18.960;2023-02-24T16:18:27;49.05;;;30.85;;
37485;SDS011;23341;50.296;18.960;2023-02-24T16:28:42;76.00;;;40.42;;
37485;SDS011;23341;50.296;18.960;2023-02-24T16:33:48;80.30;;;41.40;;
37485;SDS011;23341;50.296;18.960;2023-02-24T16:38:58;86.07;;;42.22;;
37485;SDS011;23341;50.296;18.960;2023-02-24T16:44:02;72.30;;;39.78;;
37485;SDS011;23341;50.296;18.960;2023-02-24T16:49:07;74.07;;;45.35;;
37485;SDS011;23341;50.296;18.960;2023-02-24T16:54:16;62.55;;;42.38;;
37485;SDS011;23341;50.296;18.960;2023-02-24T16:59:23;70.70;;;41.72;;
37485;SDS011;23341;50.296;18.960;2023-02-24T17:04:29;95.65;;;51.50;;
37485;SDS011;23341;50.296;18.960;2023-02-24T17:09:35;40.72;;;24.45;;
37485;SDS011;23341;50.296;18.960;2023-02-24T17:14:39;80.53;;;37.58;;
37485;SDS011;23341;50.296;18.960;2023-02-24T17:19:43;36.28;;;19.95;;
37485;SDS011;23341;50.296;18.960;2023-02-24T17:24:49;56.83;;;33.55;;
37485;SDS011;23341;50.296;18.960;2023-02-24T17:29:53;37.03;;;22.08;;
37485;SDS011;23341;50.296;18.960;2023-02-24T17:34:58;45.28;;;25.95;;
37485;SDS011;23341;50.296;18.960;2023-02-24T17:40:04;54.22;;;31.63;;
37485;SDS011;23341;50.296;18.960;2023-02-24T17:45:10;44.30;;;25.63;;
37485;SDS011;23341;50.296;18.960;2023-02-24T17:50:15;91.40;;;45.53;;
37485;SDS011;23341;50.296;18.960;2023-02-24T17:55:21;83.63;;;45.63;;
37485;SDS011;23341;50.296;18.960;2023-02-24T18:00:26;67.40;;;37.95;;
37485;SDS011;23341;50.296;18.960;2023-02-24T18:05:30;94.95;;;55.03;;
37485;SDS011;23341;50.296;18.960;2023-02-24T18:10:36;65.43;;;38.40;;
37485;SDS011;23341;50.296;18.960;2023-02-24T18:15:40;92.45;;;58.45;;
37485;SDS011;23341;50.296;18.960;2023-02-24T18:20:45;72.53;;;40.40;;
37485;SDS011;23341;50.296;18.960;2023-02-24T18:25:50;47.58;;;28.73;;
37485;SDS011;23341;50.296;18.960;2023-02-24T18:30:55;60.17;;;32.85;;
37485;SDS011;23341;50.296;18.960;2023-02-24T18:36:00;54.58;;;34.25;;
37485;SDS011;23341;50.296;18.960;2023-02-24T18:41:07;56.65;;;30.00;;
37485;SDS011;23341;50.296;18.960;2023-02-24T18:46:13;53.33;;;32.15;;
37485;SDS011;23341;50.296;18.960;2023-02-24T18:51:19;50.80;;;31.70;;
37485;SDS011;23341;50.296;18.960;2023-02-24T18:56:29;70.88;;;37.33;;
37485;SDS011;23341;50.296;18.960;2023-02-24T19:01:36;100.67;;;52.17;;
37485;SDS011;23341;50.296;18.960;2023-02-24T19:06:43;74.13;;;43.63;;
37485;SDS011;23341;50.296;18.960;2023-02-24T19:11:51;95.25;;;56.33;;
37485;SDS011;23341;50.296;18.960;2023-02-24T19:16:56;114.50;;;64.82;;
37485;SDS011;23341;50.296;18.960;2023-02-24T19:22:02;122.88;;;67.35;;
37485;SDS011;23341;50.296;18.960;2023-02-24T19:27:08;85.13;;;52.13;;
37485;SDS011;23341;50.296;18.960;2023-02-24T19:32:12;81.10;;;50.63;;
37485;SDS011;23341;50.296;18.960;2023-02-24T19:37:17;76.35;;;47.47;;
37485;SDS011;23341;50.296;18.960;2023-02-24T19:42:23;74.93;;;44.22;;
37485;SDS011;23341;50.296;18.960;2023-02-24T19:47:27;68.30;;;40.75;;
37485;SDS011;23341;50.296;18.960;2023-02-24T19:52:32;65.88;;;42.13;;
37485;SDS011;23341;50.296;18.960;2023-02-24T19:57:38;59.30;;;35.47;;
37485;SDS011;23341;50.296;18.960;2023-02-24T20:02:42;63.55;;;38.85;;
37485;SDS011;23341;50.296;18.960;2023-02-24T20:07:46;56.00;;;33.05;;
37485;SDS011;23341;50.296;18.960;2023-02-24T20:12:52;52.92;;;32.47;;
37485;SDS011;23341;50.296;18.960;2023-02-24T20:17:57;55.75;;;36.97;;
37485;SDS011;23341;50.296;18.960;2023-02-24T20:23:04;79.20;;;43.38;;
37485;SDS011;23341;50.296;18.960;2023-02-24T20:28:10;73.10;;;42.13;;
37485;SDS011;23341;50.296;18.960;2023-02-24T20:33:14;74.03;;;42.55;;
37485;SDS011;23341;50.296;18.960;2023-02-24T20:38:19;73.97;;;42.15;;
37485;SDS011;23341;50.296;18.960;2023-02-24T20:43:25;93.22;;;48.33;;
37485;SDS011;23341;50.296;18.960;2023-02-24T20:48:30;107.07;;;54.35;;
37485;SDS011;23341;50.296;18.960;2023-02-24T20:53:34;101.15;;;53.78;;
37485;SDS011;23341;50.296;18.960;2023-02-24T20:59:00;91.88;;;50.53;;
37485;SDS011;23341;50.296;18.960;2023-02-24T21:04:06;102.18;;;55.03;;
37485;SDS011;23341;50.296;18.960;2023-02-24T21:09:10;113.85;;;64.38;;
37485;SDS011;23341;50.296;18.960;2023-02-24T21:14:16;277.85;;;120.07;;
37485;SDS011;23341;50.296;18.960;2023-02-24T21:19:20;327.15;;;135.75;;
37485;SDS011;23341;50.296;18.960;2023-02-24T21:24:25;84.35;;;49.13;;
37485;SDS011;23341;50.296;18.960;2023-02-24T21:29:31;108.43;;;55.42;;
37485;SDS011;23341;50.296;18.960;2023-02-24T21:34:35;90.43;;;48.53;;
37485;SDS011;23341;50.296;18.960;2023-02-24T21:39:40;102.63;;;60.88;;
37485;SDS011;23341;50.296;18.960;2023-02-24T21:44:46;92.18;;;50.28;;
37485;SDS011;23341;50.296;18.960;2023-02-24T21:49:52;88.05;;;49.95;;
37485;SDS011;23341;50.296;18.960;2023-02-24T21:54:57;77.75;;;44.55;;
37485;SDS011;23341;50.296;18.960;2023-02-24T22:00:04;84.53;;;43.10;;
37485;SDS011;23341;50.296;18.960;2023-02-24T22:05:20;73.93;;;42.20;;
37485;SDS011;23341;50.296;18.960;2023-02-24T22:10:26;77.80;;;40.30;;
37485;SDS011;23341;50.296;18.960;2023-02-24T22:15:31;70.00;;;38.55;;
37485;SDS011;23341;50.296;18.960;2023-02-24T22:20:36;71.65;;;36.88;;
37485;SDS011;23341;50.296;18.960;2023-02-24T22:25:40;65.53;;;33.50;;
37485;SDS011;23341;50.296;18.960;2023-02-24T22:30:46;57.03;;;29.00;;
37485;SDS011;23341;50.296;18.960;2023-02-24T22:35:59;59.40;;;30.55;;
37485;SDS011;23341;50.296;18.960;2023-02-24T22:41:06;53.28;;;26.50;;
37485;SDS011;23341;50.296;18.960;2023-02-24T22:46:15;66.72;;;31.15;;
37485;SDS011;23341;50.296;18.960;2023-02-24T22:51:23;62.88;;;31.60;;
37485;SDS011;23341;50.296;18.960;2023-02-24T22:56:29;50.38;;;26.70;;
37485;SDS011;23341;50.296;18.960;2023-02-24T23:01:37;39.45;;;20.10;;
37485;SDS011;23341;50.296;18.960;2023-02-24T23:06:42;40.90;;;21.35;;
37485;SDS011;23341;50.296;18.960;2023-02-24T23:11:46;42.78;;;20.77;;
37485;SDS011;23341;50.296;18.960;2023-02-24T23:16:53;35.10;;;19.75;;
37485;SDS011;23341;50.296;18.960;2023-02-24T23:21:57;35.63;;;19.67;;
37485;SDS011;23341;50.296;18.960;2023-02-24T23:27:02;119.03;;;48.88;;
37485;SDS011;23341;50.296;18.960;2023-02-24T23:32:09;68.10;;;33.42;;
37485;SDS011;23341;50.296;18.960;2023-02-24T23:37:13;74.00;;;39.03;;
37485;SDS011;23341;50.296;18.960;2023-02-24T23:42:18;85.20;;;46.83;;
37485;SDS011;23341;50.296;18.960;2023-02-24T23:47:24;116.72;;;61.58;;
37485;SDS011;23341;50.296;18.960;2023-02-24T23:52:29;138.68;;;66.45;;
37485;SDS011;23341;50.296;18.960;2023-02-24T23:57:34;165.85;;;75.78;;
